Time;durP1;ratioP1;P1;durP2;ratioP2;P2;SDS_P1;SDS_P2;PMS_P1;PMS_P2;Temp;Humidity;BMP_temperature;BMP_pressure;BME280_temperature;BME280_humidity;BME280_pressure;Samples;Min_cycle;Max_cycle;Signal;HPM_P1;HPM_P2
2022/03/25 00:01:08;;;;;;;1.87;1.63;;;6.10;99.90;;;;;;5042292;28;20282;-90
2022/03/25 00:03:34;;;;;;;3.87;3.57;;;5.90;99.90;;;;;;5044232;28;20197;-90
2022/03/25 00:05:59;;;;;;;2.77;2.67;;;5.80;99.90;;;;;;5025085;28;20258;-89
2022/03/25 00:08:26;;;;;;;1.87;1.10;;;5.70;99.90;;;;;;5043764;28;20317;-89
2022/03/25 00:10:51;;;;;;;3.83;3.60;;;5.90;99.90;;;;;;5031270;28;20640;-90
2022/03/25 00:13:17;;;;;;;5.57;2.77;;;5.50;99.90;;;;;;5045394;28;20427;-90
2022/03/25 00:15:43;;;;;;;3.27;3.03;;;5.60;99.90;;;;;;5027428;28;20199;-90
2022/03/25 00:18:08;;;;;;;7.93;5.13;;;5.80;99.90;;;;;;5034206;28;20195;-90
2022/03/25 00:20:34;;;;;;;2.07;1.70;;;5.90;99.90;;;;;;5026105;28;20207;-90
2022/03/25 00:22:59;;;;;;;3.23;3.00;;;5.80;99.90;;;;;;5047564;28;20270;-90
2022/03/25 00:25:25;;;;;;;3.80;3.50;;;5.90;99.90;;;;;;5045314;28;20269;-90
2022/03/25 00:27:50;;;;;;;4.17;3.87;;;5.80;99.90;;;;;;5049670;28;20202;-91
2022/03/25 00:30:16;;;;;;;13.43;3.43;;;5.80;99.90;;;;;;5032734;28;20196;-89
2022/03/25 00:32:41;;;;;;;2.97;2.77;;;5.60;99.90;;;;;;5037231;28;20219;-89
2022/03/25 00:35:08;;;;;;;1.53;1.27;;;5.50;99.90;;;;;;5017815;28;20195;-90
2022/03/25 00:37:33;;;;;;;2.20;2.00;;;5.60;99.90;;;;;;5022494;28;20195;-90
2022/03/25 00:39:59;;;;;;;2.43;2.30;;;5.60;99.90;;;;;;5016858;28;20938;-90
2022/03/25 00:42:25;;;;;;;2.73;1.67;;;5.50;99.90;;;;;;5016387;28;20177;-91
2022/03/25 00:44:51;;;;;;;12.70;4.87;;;5.60;99.90;;;;;;5024835;28;20765;-90
2022/03/25 00:47:16;;;;;;;2.13;1.93;;;5.60;99.90;;;;;;5023512;28;20478;-90
2022/03/25 00:49:42;;;;;;;5.10;1.93;;;5.60;99.90;;;;;;5029158;28;20183;-90
2022/03/25 00:52:08;;;;;;;3.27;3.10;;;5.40;99.90;;;;;;5046404;28;20218;-90
2022/03/25 00:54:34;;;;;;;2.63;2.37;;;5.40;99.90;;;;;;5033394;28;20183;-91
2022/03/25 00:56:59;;;;;;;3.43;2.13;;;5.30;99.90;;;;;;5045068;28;20891;-89
2022/03/25 00:59:25;;;;;;;3.53;2.80;;;5.20;99.90;;;;;;5030180;28;20227;-90
2022/03/25 01:01:50;;;;;;;1.53;1.13;;;5.20;99.90;;;;;;5029176;28;20187;-90
2022/03/25 01:04:16;;;;;;;2.53;1.10;;;5.20;99.90;;;;;;5031417;28;20239;-89
2022/03/25 01:06:43;;;;;;;4.83;1.63;;;5.10;99.90;;;;;;5036743;28;20200;-90
2022/03/25 01:09:08;;;;;;;19.50;4.33;;;5.30;99.90;;;;;;5022677;28;20435;-92
2022/03/25 01:11:35;;;;;;;1.83;1.67;;;5.20;99.90;;;;;;5039027;28;20449;-90
2022/03/25 01:14:04;;;;;;;2.17;2.07;;;5.10;99.90;;;;;;5026934;28;20207;-89
2022/03/25 01:16:30;;;;;;;2.53;2.33;;;5.10;99.90;;;;;;5031896;28;20450;-89
2022/03/25 01:18:55;;;;;;;2.30;1.73;;;5.00;99.90;;;;;;5031686;28;21044;-90
2022/03/25 01:21:21;;;;;;;1.57;1.47;;;4.90;99.90;;;;;;5025920;28;20186;-90
2022/03/25 01:23:48;;;;;;;2.27;1.87;;;5.00;99.90;;;;;;5024568;28;20180;-90
2022/03/25 01:26:13;;;;;;;4.50;3.50;;;4.80;99.90;;;;;;5050650;28;20683;-89
2022/03/25 01:28:39;;;;;;;3.03;2.83;;;4.90;99.90;;;;;;5037558;28;20457;-90
2022/03/25 01:31:06;;;;;;;2.87;2.67;;;4.80;99.90;;;;;;5031451;28;20187;-90
2022/03/25 01:33:31;;;;;;;4.27;3.93;;;4.80;99.90;;;;;;5030268;28;20811;-90
2022/03/25 01:35:57;;;;;;;3.47;3.27;;;4.90;99.90;;;;;;5027889;28;20541;-90
2022/03/25 01:38:25;;;;;;;2.50;2.30;;;4.80;99.90;;;;;;5018664;28;20544;-90
2022/03/25 01:40:51;;;;;;;5.00;3.30;;;4.80;99.90;;;;;;5029659;28;20192;-89
2022/03/25 01:43:17;;;;;;;3.17;2.97;;;4.70;99.90;;;;;;5029382;28;20521;-89
2022/03/25 01:45:42;;;;;;;2.40;2.20;;;4.90;99.90;;;;;;5037784;28;20629;-91
2022/03/25 01:48:11;;;;;;;3.43;3.23;;;4.90;99.90;;;;;;5026687;28;20188;-90
2022/03/25 01:50:38;;;;;;;5.00;2.97;;;4.80;99.90;;;;;;5032156;28;20202;-90
2022/03/25 01:53:18;;;;;;;27.23;3.80;;;4.90;99.90;;;;;;5030788;28;20512;-90
2022/03/25 01:55:58;;;;;;;2.83;2.53;;;4.80;99.90;;;;;;5034843;28;20441;-89
2022/03/25 01:58:27;;;;;;;4.57;2.00;;;4.90;99.90;;;;;;5031022;28;20956;-89
2022/03/25 02:00:57;;;;;;;10.07;2.73;;;4.70;99.90;;;;;;5046922;28;20666;-90
2022/03/25 02:03:22;;;;;;;3.60;1.47;;;4.80;99.90;;;;;;5027323;28;20835;-91
2022/03/25 02:05:48;;;;;;;3.27;3.07;;;4.80;99.90;;;;;;5032141;28;21267;-90
2022/03/25 02:08:15;;;;;;;1.57;1.43;;;4.80;99.90;;;;;;5036585;28;20179;-90
2022/03/25 02:10:41;;;;;;;2.90;2.10;;;4.80;99.90;;;;;;5049013;28;20441;-91
2022/03/25 02:13:08;;;;;;;3.80;2.27;;;4.70;99.90;;;;;;5033713;28;20449;-89
2022/03/25 02:15:43;;;;;;;1.10;1.00;;;4.70;99.90;;;;;;5037203;28;20443;-91
2022/03/25 02:18:12;;;;;;;2.20;2.10;;;4.50;99.90;;;;;;5034093;28;20442;-90
2022/03/25 02:20:39;;;;;;;2.07;1.50;;;4.50;99.90;;;;;;5044674;28;20539;-90
2022/03/25 02:23:05;;;;;;;1.17;1.07;;;4.40;99.90;;;;;;5025470;28;20434;-90
2022/03/25 02:25:32;;;;;;;4.00;3.07;;;4.60;99.90;;;;;;5026990;28;20469;-90
2022/03/25 02:27:59;;;;;;;9.23;3.70;;;4.70;99.90;;;;;;5025714;28;20461;-90
2022/03/25 02:30:26;;;;;;;1.30;1.20;;;4.60;99.90;;;;;;5027967;28;20507;-90
2022/03/25 02:32:53;;;;;;;2.70;2.37;;;4.70;99.90;;;;;;5028966;28;20450;-90
2022/03/25 02:35:18;;;;;;;3.57;2.20;;;4.60;99.90;;;;;;5028550;28;20438;-91
2022/03/25 02:37:44;;;;;;;1.67;1.30;;;4.60;99.90;;;;;;5035679;28;20437;-90
2022/03/25 02:40:10;;;;;;;1.73;1.63;;;4.60;99.90;;;;;;5030004;28;20191;-90
2022/03/25 02:42:35;;;;;;;12.03;5.03;;;4.60;99.90;;;;;;5030057;28;20210;-90
2022/03/25 02:45:02;;;;;;;2.30;1.73;;;4.30;99.90;;;;;;5044076;28;20501;-90
2022/03/25 02:47:27;;;;;;;1.10;1.00;;;4.10;99.90;;;;;;5034153;28;20273;-89
2022/03/25 02:49:53;;;;;;;2.50;2.20;;;4.10;99.90;;;;;;5032307;28;20904;-90
2022/03/25 02:52:18;;;;;;;4.37;2.00;;;4.10;99.90;;;;;;5039828;28;20584;-90
2022/03/25 02:54:44;;;;;;;1.57;1.47;;;4.20;99.90;;;;;;5032170;28;20276;-90
2022/03/25 02:57:10;;;;;;;1.10;1.00;;;4.20;99.90;;;;;;5049955;28;20194;-89
2022/03/25 02:59:36;;;;;;;1.23;1.13;;;4.20;99.90;;;;;;5038498;28;20188;-90
2022/03/25 03:02:02;;;;;;;2.20;2.10;;;3.90;99.90;;;;;;5050858;28;20438;-91
2022/03/25 03:04:27;;;;;;;4.23;2.90;;;3.90;99.90;;;;;;5036028;28;20239;-89
2022/03/25 03:06:53;;;;;;;4.47;2.70;;;3.80;99.90;;;;;;5022241;28;20192;-91
2022/03/25 03:09:19;;;;;;;1.10;1.00;;;3.80;99.90;;;;;;5029170;28;20180;-90
2022/03/25 03:11:45;;;;;;;3.47;1.33;;;3.80;99.90;;;;;;5037192;28;20448;-90
2022/03/25 03:14:10;;;;;;;1.73;1.63;;;3.80;99.90;;;;;;5039698;28;20196;-90
2022/03/25 03:16:36;;;;;;;1.90;1.80;;;3.80;99.90;;;;;;5036042;28;20328;-90
2022/03/25 03:19:01;;;;;;;1.13;1.03;;;3.70;99.90;;;;;;5030254;28;20257;-90
2022/03/25 03:21:29;;;;;;;5.43;1.93;;;3.80;99.90;;;;;;5036354;28;20180;-90
2022/03/25 03:23:55;;;;;;;1.27;1.17;;;3.90;99.90;;;;;;5035047;28;20175;-90
2022/03/25 03:26:21;;;;;;;3.17;1.40;;;3.80;99.90;;;;;;5046384;28;20442;-90
2022/03/25 03:28:46;;;;;;;1.23;1.13;;;3.80;99.90;;;;;;5029955;28;20922;-90
2022/03/25 03:31:12;;;;;;;2.47;2.17;;;3.70;99.90;;;;;;5036652;28;20442;-90
2022/03/25 03:33:38;;;;;;;2.20;2.10;;;3.80;99.90;;;;;;5031108;28;20236;-91
2022/03/25 03:36:04;;;;;;;4.60;4.33;;;3.80;99.90;;;;;;5034687;28;21001;-91
2022/03/25 03:38:30;;;;;;;5.87;3.40;;;3.80;99.90;;;;;;5030344;28;20437;-91
2022/03/25 03:40:56;;;;;;;10.23;2.47;;;3.80;99.90;;;;;;5033547;28;20430;-91
2022/03/25 03:43:22;;;;;;;2.17;2.07;;;3.80;99.90;;;;;;5045205;28;20442;-90
2022/03/25 03:45:47;;;;;;;1.73;1.40;;;3.80;99.90;;;;;;5025915;28;20278;-90
2022/03/25 03:48:13;;;;;;;3.63;3.43;;;3.80;99.90;;;;;;5031862;28;20554;-90
2022/03/25 03:50:40;;;;;;;4.80;4.50;;;3.80;99.90;;;;;;5038182;28;20199;-91
2022/03/25 03:53:05;;;;;;;3.97;3.77;;;3.80;99.90;;;;;;5031400;28;20879;-91
2022/03/25 03:55:31;;;;;;;1.87;1.50;;;3.60;99.90;;;;;;5039944;28;20453;-90
2022/03/25 03:57:57;;;;;;;3.03;2.83;;;3.60;99.90;;;;;;5039291;28;20525;-89
2022/03/25 04:00:24;;;;;;;2.70;2.60;;;3.70;99.90;;;;;;5040147;28;20199;-90
2022/03/25 04:02:51;;;;;;;3.43;3.23;;;3.50;99.90;;;;;;5029632;28;20529;-90
2022/03/25 04:05:16;;;;;;;1.40;1.30;;;3.40;99.90;;;;;;5030004;28;20489;-90
2022/03/25 04:07:48;;;;;;;4.30;2.03;;;3.40;99.90;;;;;;5034427;28;20439;-91
2022/03/25 04:10:18;;;;;;;5.73;2.63;;;3.50;99.90;;;;;;5028503;28;20283;-90
2022/03/25 04:12:44;;;;;;;1.47;1.37;;;3.50;99.90;;;;;;5037105;28;20736;-90
2022/03/25 04:15:11;;;;;;;1.33;1.20;;;3.50;99.90;;;;;;5032496;28;20519;-91
2022/03/25 04:17:38;;;;;;;3.63;3.37;;;3.40;99.90;;;;;;5031235;28;20231;-90
2022/03/25 04:20:04;;;;;;;3.97;2.27;;;3.30;99.90;;;;;;5032237;28;20450;-91
2022/03/25 04:22:29;;;;;;;2.70;2.60;;;3.50;99.90;;;;;;5032868;28;20564;-89
2022/03/25 04:24:55;;;;;;;1.37;1.27;;;3.60;99.90;;;;;;5032034;28;20486;-89
2022/03/25 04:27:21;;;;;;;1.67;1.57;;;3.60;99.90;;;;;;5029794;28;20242;-89
2022/03/25 04:29:47;;;;;;;1.93;1.07;;;3.70;99.90;;;;;;5030006;28;20478;-90
2022/03/25 04:32:12;;;;;;;1.40;1.30;;;3.60;99.90;;;;;;5020361;28;20186;-90
2022/03/25 04:34:38;;;;;;;2.00;1.83;;;3.50;99.90;;;;;;5030177;28;20184;-90
2022/03/25 04:37:04;;;;;;;2.60;2.40;;;3.40;99.90;;;;;;5026029;28;20202;-90
2022/03/25 04:39:29;;;;;;;2.93;2.03;;;3.40;99.90;;;;;;5030208;28;20282;-91
2022/03/25 04:41:55;;;;;;;1.77;1.43;;;3.20;99.90;;;;;;5041657;28;20270;-89
2022/03/25 04:44:20;;;;;;;2.50;1.53;;;3.20;99.90;;;;;;5041299;28;20207;-89
2022/03/25 04:46:46;;;;;;;4.27;3.97;;;3.20;99.90;;;;;;5018942;28;20200;-90
2022/03/25 04:49:11;;;;;;;4.70;2.40;;;3.20;99.90;;;;;;5025083;28;20180;-89
2022/03/25 04:51:37;;;;;;;2.23;2.13;;;3.20;99.90;;;;;;5028996;28;20255;-90
2022/03/25 04:54:03;;;;;;;1.63;1.50;;;3.30;99.90;;;;;;5038051;28;20186;-90
2022/03/25 04:56:29;;;;;;;4.83;4.37;;;3.30;99.90;;;;;;5030724;28;20256;-90
2022/03/25 04:58:55;;;;;;;1.53;1.43;;;3.30;99.90;;;;;;5022307;28;20435;-90
2022/03/25 05:01:20;;;;;;;3.20;3.00;;;3.40;99.90;;;;;;5024629;28;20453;-90
2022/03/25 05:03:46;;;;;;;1.20;1.10;;;3.40;99.90;;;;;;5029286;28;20221;-89
2022/03/25 05:06:11;;;;;;;2.50;2.40;;;3.20;99.90;;;;;;5026409;28;20555;-90
2022/03/25 05:08:37;;;;;;;11.20;3.43;;;3.30;99.90;;;;;;5039057;28;20179;-90
2022/03/25 05:11:03;;;;;;;2.80;2.07;;;3.30;99.90;;;;;;5051409;28;20182;-90
2022/03/25 05:13:28;;;;;;;2.03;1.93;;;3.30;99.90;;;;;;5052662;28;20245;-90
2022/03/25 05:15:54;;;;;;;3.63;1.97;;;3.30;99.90;;;;;;5029473;28;20191;-90
2022/03/25 05:18:19;;;;;;;2.33;2.23;;;3.10;99.90;;;;;;5026225;28;20707;-90
2022/03/25 05:20:45;;;;;;;5.80;3.50;;;3.20;99.90;;;;;;5019962;28;20182;-90
2022/03/25 05:23:11;;;;;;;1.40;1.30;;;3.30;99.90;;;;;;5038502;28;20256;-90
2022/03/25 05:25:36;;;;;;;2.67;2.47;;;3.30;99.90;;;;;;5044011;28;20215;-90
2022/03/25 05:28:05;;;;;;;2.00;1.90;;;3.20;99.90;;;;;;5030034;28;20180;-90
2022/03/25 05:30:32;;;;;;;2.30;2.17;;;3.20;99.90;;;;;;5024964;28;20484;-89
2022/03/25 05:32:58;;;;;;;1.77;1.67;;;3.20;99.90;;;;;;5014736;28;20461;-90
2022/03/25 05:35:25;;;;;;;11.27;2.37;;;3.20;99.90;;;;;;5036457;28;20503;-89
2022/03/25 05:37:51;;;;;;;9.40;2.53;;;3.30;99.90;;;;;;5017048;28;20443;-90
2022/03/25 05:40:20;;;;;;;10.73;3.50;;;3.40;99.90;;;;;;5026711;28;20441;-89
2022/03/25 05:42:46;;;;;;;5.50;4.00;;;3.30;99.90;;;;;;5047169;28;20488;-90
2022/03/25 05:45:12;;;;;;;3.50;3.27;;;3.30;99.90;;;;;;5024958;28;20462;-90
2022/03/25 05:47:39;;;;;;;3.30;3.10;;;3.40;99.90;;;;;;5036687;28;20533;-90
2022/03/25 05:50:06;;;;;;;3.30;2.83;;;3.50;99.90;;;;;;5052995;28;20532;-91
2022/03/25 05:52:32;;;;;;;1.93;1.83;;;3.50;99.90;;;;;;5029305;28;20442;-91
2022/03/25 05:54:58;;;;;;;3.53;1.63;;;3.50;99.90;;;;;;5028318;28;20946;-90
2022/03/25 05:57:24;;;;;;;3.27;3.07;;;3.50;99.90;;;;;;5029808;28;20191;-90
2022/03/25 05:59:49;;;;;;;2.87;2.60;;;3.50;99.90;;;;;;5012294;28;20184;-90
2022/03/25 06:02:15;;;;;;;3.87;3.67;;;3.50;99.90;;;;;;5024741;28;20249;-90
2022/03/25 06:04:41;;;;;;;2.50;1.77;;;3.50;99.90;;;;;;5035379;28;20329;-90
2022/03/25 06:07:07;;;;;;;2.07;1.73;;;3.60;99.90;;;;;;5028005;28;20664;-89
2022/03/25 06:09:32;;;;;;;1.30;1.20;;;3.60;99.90;;;;;;5036200;28;20358;-89
2022/03/25 06:11:58;;;;;;;4.47;3.30;;;3.70;99.90;;;;;;5030879;28;20195;-90
2022/03/25 06:14:25;;;;;;;1.90;1.80;;;3.70;99.90;;;;;;5041744;28;20176;-89
2022/03/25 06:16:51;;;;;;;5.93;4.73;;;3.70;99.90;;;;;;5032937;28;20183;-88
2022/03/25 06:19:17;;;;;;;1.43;1.33;;;3.80;99.90;;;;;;5042596;28;20942;-89
2022/03/25 06:21:43;;;;;;;3.13;2.87;;;3.80;99.90;;;;;;5028844;28;20547;-88
2022/03/25 06:24:08;;;;;;;3.17;1.20;;;4.00;99.90;;;;;;5034695;28;20972;-89
2022/03/25 06:26:34;;;;;;;0.90;0.80;;;4.10;99.90;;;;;;5045029;28;20551;-89
2022/03/25 06:29:00;;;;;;;2.07;1.90;;;4.20;99.90;;;;;;5036283;28;20183;-89
2022/03/25 06:31:25;;;;;;;1.73;1.63;;;4.30;99.90;;;;;;5043562;28;20640;-89
2022/03/25 06:33:51;;;;;;;1.73;1.63;;;4.40;99.90;;;;;;5030778;28;20248;-89
2022/03/25 06:36:16;;;;;;;1.40;1.30;;;4.50;99.90;;;;;;5047090;28;20194;-91
2022/03/25 06:38:43;;;;;;;1.53;1.43;;;4.70;99.90;;;;;;5036124;28;20188;-90
2022/03/25 06:41:09;;;;;;;5.97;3.63;;;4.80;99.90;;;;;;5048875;28;20191;-91
2022/03/25 06:43:36;;;;;;;2.87;2.57;;;4.90;99.90;;;;;;5035533;28;20446;-89
2022/03/25 06:46:02;;;;;;;7.10;3.70;;;5.10;99.90;;;;;;5027706;28;20493;-90
2022/03/25 06:48:28;;;;;;;8.50;3.63;;;5.20;99.90;;;;;;5046933;28;20430;-91
2022/03/25 06:50:54;;;;;;;6.23;5.20;;;5.40;99.90;;;;;;5046184;28;20508;-92
2022/03/25 06:53:20;;;;;;;1.40;1.30;;;5.60;99.90;;;;;;5031675;28;20188;-92
2022/03/25 06:55:46;;;;;;;4.33;2.80;;;5.70;99.90;;;;;;5026630;28;21106;-93
2022/03/25 06:58:12;;;;;;;25.53;3.77;;;5.80;99.90;;;;;;5038776;28;20483;-91
2022/03/25 07:00:38;;;;;;;2.33;2.13;;;6.00;99.90;;;;;;5039285;28;20465;-93
2022/03/25 07:03:04;;;;;;;5.03;3.30;;;6.10;99.90;;;;;;5015586;28;20431;-93
2022/03/25 07:05:30;;;;;;;2.83;2.60;;;6.30;99.90;;;;;;5045292;28;20496;-93
2022/03/25 07:07:56;;;;;;;1.30;1.20;;;6.40;99.90;;;;;;5046213;28;20446;-93
2022/03/25 07:10:23;;;;;;;4.30;4.10;;;6.70;99.90;;;;;;5051423;28;20456;-93
2022/03/25 07:12:50;;;;;;;1.20;1.10;;;6.80;99.90;;;;;;5040138;28;20441;-92
2022/03/25 07:15:17;;;;;;;1.10;0.93;;;7.10;99.90;;;;;;5046650;28;20446;-93
2022/03/25 07:17:43;;;;;;;1.57;1.47;;;7.30;99.90;;;;;;5049072;28;20433;-93
2022/03/25 07:20:13;;;;;;;1.10;1.00;;;7.40;99.90;;;;;;5054311;28;20425;-92
2022/03/25 07:22:42;;;;;;;1.17;1.07;;;7.60;99.90;;;;;;5035800;28;20417;-90
2022/03/25 07:25:08;;;;;;;3.30;2.27;;;7.80;99.90;;;;;;5030478;28;20485;-90
2022/03/25 07:27:34;;;;;;;3.63;2.80;;;8.10;99.90;;;;;;5032482;28;20469;-88
2022/03/25 07:29:59;;;;;;;1.47;1.37;;;8.20;99.90;;;;;;5040407;28;20468;-86
2022/03/25 07:32:25;;;;;;;2.30;2.10;;;8.40;99.90;;;;;;5041206;28;20578;-85
2022/03/25 07:34:51;;;;;;;1.90;1.80;;;8.40;99.90;;;;;;5037333;28;20230;-88
2022/03/25 07:37:16;;;;;;;2.10;1.97;;;8.50;99.90;;;;;;5030443;28;20215;-89
2022/03/25 07:39:42;;;;;;;1.67;1.57;;;8.60;99.90;;;;;;5026569;28;20439;-89
2022/03/25 07:42:08;;;;;;;2.40;2.20;;;8.70;99.90;;;;;;5018128;28;20181;-92
2022/03/25 07:44:34;;;;;;;2.90;1.40;;;8.60;99.90;;;;;;5038898;28;20707;-90
2022/03/25 07:47:00;;;;;;;3.70;2.17;;;8.80;99.90;;;;;;5031428;28;20183;-90
2022/03/25 07:49:25;;;;;;;1.57;1.30;;;9.00;99.90;;;;;;5026773;28;20496;-89
2022/03/25 07:51:51;;;;;;;2.53;1.80;;;9.10;99.90;;;;;;5036307;28;20186;-89
2022/03/25 07:54:17;;;;;;;6.23;3.57;;;9.40;99.90;;;;;;5043627;28;20191;-89
2022/03/25 07:56:42;;;;;;;2.67;2.50;;;9.50;99.90;;;;;;5041536;28;20218;-89
2022/03/25 07:59:11;;;;;;;0.90;0.70;;;9.70;99.90;;;;;;5037916;28;20489;-89
2022/03/25 08:01:41;;;;;;;3.93;1.50;;;9.50;99.90;;;;;;5023899;28;20218;-92
2022/03/25 08:04:06;;;;;;;1.47;1.17;;;9.50;99.90;;;;;;5031256;28;20839;-89
2022/03/25 08:06:33;;;;;;;2.03;1.83;;;9.50;99.90;;;;;;5022296;28;20446;-89
2022/03/25 08:09:00;;;;;;;1.67;1.57;;;9.80;99.00;;;;;;5032298;28;20710;-91
2022/03/25 08:11:26;;;;;;;0.97;0.87;;;10.00;96.90;;;;;;5043021;28;20431;-89
2022/03/25 08:13:52;;;;;;;3.03;1.73;;;10.30;99.00;;;;;;5032172;28;20451;-91
2022/03/25 08:16:18;;;;;;;0.90;0.80;;;10.50;97.60;;;;;;5031490;28;20187;-90
2022/03/25 08:18:44;;;;;;;0.90;0.77;;;10.90;98.00;;;;;;5033290;28;20437;-92
2022/03/25 08:21:11;;;;;;;0.97;0.70;;;10.70;96.80;;;;;;5033908;28;20270;-92
2022/03/25 08:29:05;;;;;;;2.37;2.17;;;11.50;95.80;;;;;;5029210;28;20444;-93
2022/03/25 08:31:34;;;;;;;1.40;0.80;;;11.60;97.40;;;;;;5035603;28;20458;-92
2022/03/25 08:34:00;;;;;;;2.40;2.20;;;11.70;92.30;;;;;;5028058;28;20179;-92
2022/03/25 08:36:26;;;;;;;2.43;1.80;;;12.00;96.60;;;;;;5034075;28;20480;-91
2022/03/25 08:38:51;;;;;;;7.27;3.13;;;11.60;94.00;;;;;;5031193;28;20438;-91
2022/03/25 08:41:18;;;;;;;0.90;0.60;;;11.70;94.90;;;;;;5030083;28;20655;-92
2022/03/25 08:43:43;;;;;;;5.00;1.90;;;12.20;95.70;;;;;;5027189;28;20175;-92
2022/03/25 08:46:09;;;;;;;3.13;2.87;;;12.50;95.60;;;;;;5013732;28;20482;-91
2022/03/25 08:48:35;;;;;;;2.63;2.20;;;12.70;92.20;;;;;;5022052;28;20203;-92
2022/03/25 08:51:01;;;;;;;0.90;0.60;;;12.10;90.50;;;;;;5032778;28;20528;-90
2022/03/25 08:53:27;;;;;;;10.50;3.97;;;11.90;92.00;;;;;;5029234;28;20438;-92
2022/03/25 08:55:53;;;;;;;0.93;0.83;;;12.20;92.00;;;;;;5014369;28;20184;-92
2022/03/25 08:58:19;;;;;;;3.93;1.33;;;12.50;91.50;;;;;;5032037;28;20438;-92
2022/03/25 09:00:45;;;;;;;0.90;0.60;;;12.80;91.90;;;;;;5030676;28;20190;-93
2022/03/25 09:03:11;;;;;;;0.87;0.57;;;13.00;90.30;;;;;;5022618;28;20794;-91
2022/03/25 09:05:36;;;;;;;2.27;0.80;;;12.90;88.90;;;;;;5028233;28;20267;-91
2022/03/25 09:08:06;;;;;;;5.73;2.90;;;13.10;89.80;;;;;;5020043;28;20642;-91
2022/03/25 09:10:33;;;;;;;1.20;0.80;;;13.20;90.60;;;;;;5014435;28;20192;-92
2022/03/25 09:12:59;;;;;;;1.90;1.77;;;13.20;88.00;;;;;;5043175;28;20450;-92
2022/03/25 09:15:24;;;;;;;0.80;0.50;;;13.40;87.90;;;;;;5033905;28;20496;-92
2022/03/25 09:17:50;;;;;;;1.63;1.37;;;13.20;87.80;;;;;;5033424;28;20520;-93
2022/03/25 09:20:16;;;;;;;1.37;1.27;;;13.70;91.30;;;;;;5031889;28;20179;-91
2022/03/25 09:22:43;;;;;;;2.20;2.00;;;14.30;93.20;;;;;;5032515;28;20172;-92
2022/03/25 09:25:11;;;;;;;1.93;1.53;;;14.40;88.70;;;;;;5032874;28;20468;-92
2022/03/25 09:27:41;;;;;;;7.80;1.53;;;13.80;88.60;;;;;;5030792;28;20445;-92
2022/03/25 09:30:09;;;;;;;2.37;1.70;;;14.20;91.40;;;;;;5018106;28;20439;-93
2022/03/25 09:32:35;;;;;;;0.20;0.20;;;13.90;90.00;;;;;;5052413;28;20457;-93
2022/03/25 09:35:09;;;;;;;1.00;0.97;;;14.40;91.50;;;;;;5041127;28;20429;-93
2022/03/25 09:37:37;;;;;;;1.23;0.80;;;14.30;90.50;;;;;;5030592;28;20187;-89
2022/03/25 09:40:08;;;;;;;1.67;1.57;;;14.80;90.50;;;;;;5028804;28;20437;-89
2022/03/25 09:42:34;;;;;;;5.27;1.20;;;15.10;90.80;;;;;;5033915;28;20460;-83
2022/03/25 09:45:02;;;;;;;3.67;1.57;;;14.80;90.60;;;;;;5027488;28;20504;-81
2022/03/25 09:47:30;;;;;;;1.27;1.17;;;14.90;91.30;;;;;;5018487;28;20442;-83
2022/03/25 09:49:56;;;;;;;3.27;2.10;;;15.20;92.10;;;;;;5026618;28;20451;-83
2022/03/25 09:52:23;;;;;;;1.03;0.93;;;16.00;93.20;;;;;;5036113;28;20448;-89
2022/03/25 09:54:48;;;;;;;1.87;1.67;;;16.30;91.70;;;;;;5031130;28;20187;-89
2022/03/25 09:57:14;;;;;;;3.33;2.73;;;16.30;91.10;;;;;;5025545;28;20840;-88
2022/03/25 09:59:39;;;;;;;1.27;0.80;;;16.10;91.00;;;;;;5028747;28;20277;-89
2022/03/25 10:02:05;;;;;;;0.93;0.80;;;16.00;90.80;;;;;;5041203;28;20724;-89
2022/03/25 10:04:44;;;;;;;2.30;1.63;;;16.00;90.00;;;;;;5043916;28;20773;-89
2022/03/25 10:07:17;;;;;;;0.90;0.50;;;16.70;92.80;;;;;;5022549;28;20218;-88
2022/03/25 10:09:44;;;;;;;5.63;2.83;;;17.10;90.80;;;;;;5038773;28;20983;-89
2022/03/25 10:12:21;;;;;;;0.90;0.60;;;16.70;89.30;;;;;;5018228;28;20454;-88
2022/03/25 10:14:51;;;;;;;1.10;1.00;;;16.60;90.60;;;;;;5032156;28;21054;-89
2022/03/25 10:17:18;;;;;;;2.97;1.63;;;16.50;88.80;;;;;;5026498;28;20441;-90
2022/03/25 10:19:49;;;;;;;1.67;1.30;;;17.50;91.80;;;;;;5024694;28;20956;-89
2022/03/25 10:22:17;;;;;;;1.53;0.87;;;18.00;90.60;;;;;;5036677;28;20455;-90
2022/03/25 10:24:46;;;;;;;0.90;0.70;;;18.50;88.90;;;;;;5029667;28;20517;-89
2022/03/25 10:27:19;;;;;;;1.63;0.80;;;17.30;87.00;;;;;;5025516;28;20817;-89
2022/03/25 10:29:46;;;;;;;1.00;0.90;;;17.70;90.90;;;;;;5023119;28;20448;-89
2022/03/25 10:32:15;;;;;;;1.10;0.90;;;17.00;86.40;;;;;;5036743;28;20526;-89
2022/03/25 10:34:42;;;;;;;2.03;1.93;;;17.20;86.20;;;;;;5019764;28;20657;-88
2022/03/25 10:37:11;;;;;;;1.10;1.00;;;17.40;90.40;;;;;;5028653;28;20441;-89
2022/03/25 10:39:38;;;;;;;1.40;1.03;;;17.60;88.60;;;;;;5020234;28;20438;-89
2022/03/25 10:42:08;;;;;;;3.70;1.10;;;18.40;90.00;;;;;;5029593;28;20445;-89
2022/03/25 10:44:41;;;;;;;1.23;1.13;;;19.00;87.90;;;;;;5045079;28;20469;-89
2022/03/25 10:47:16;;;;;;;2.00;1.33;;;18.70;87.30;;;;;;5029711;28;20476;-90
2022/03/25 10:49:46;;;;;;;1.83;1.10;;;19.40;84.30;;;;;;5029307;28;20564;-91
2022/03/25 10:52:32;;;;;;;1.03;0.87;;;19.30;86.10;;;;;;5030209;28;20454;-90
2022/03/25 10:55:18;;;;;;;3.27;3.07;;;19.00;83.30;;;;;;5026955;28;20434;-89
2022/03/25 10:57:51;;;;;;;2.60;1.10;;;19.00;85.40;;;;;;5025737;28;20441;-90
2022/03/25 11:00:17;;;;;;;1.87;1.60;;;19.60;87.20;;;;;;5025470;28;20469;-88
2022/03/25 11:02:44;;;;;;;1.93;1.30;;;19.70;82.20;;;;;;5020771;28;20435;-89
2022/03/25 11:05:10;;;;;;;3.23;1.60;;;20.00;82.30;;;;;;5032173;28;20478;-88
2022/03/25 11:07:43;;;;;;;2.80;1.97;;;19.80;80.10;;;;;;5028566;28;20485;-89
2022/03/25 11:10:13;;;;;;;2.33;2.13;;;20.10;81.50;;;;;;5035771;28;20434;-90
2022/03/25 11:12:43;;;;;;;2.10;1.40;;;20.50;81.30;;;;;;5018902;28;20446;-89
2022/03/25 11:15:11;;;;;;;1.53;1.23;;;20.70;83.00;;;;;;5043293;28;20483;-88
2022/03/25 11:17:39;;;;;;;1.47;1.20;;;21.30;79.40;;;;;;5023109;28;20991;-87
2022/03/25 11:20:06;;;;;;;3.30;2.43;;;20.30;79.40;;;;;;5024742;28;20532;-87
2022/03/25 11:22:34;;;;;;;3.80;1.60;;;19.50;80.20;;;;;;5030041;28;20552;-87
2022/03/25 11:25:03;;;;;;;3.17;2.00;;;20.00;78.30;;;;;;5026843;28;20521;-86
2022/03/25 11:27:32;;;;;;;2.83;2.00;;;19.70;79.90;;;;;;5023730;28;20440;-87
2022/03/25 11:30:09;;;;;;;3.77;1.93;;;19.30;79.50;;;;;;5048361;28;20942;-86
2022/03/25 11:32:47;;;;;;;2.83;2.10;;;20.00;79.30;;;;;;5031853;28;20548;-87
2022/03/25 11:35:19;;;;;;;3.60;1.83;;;21.40;79.40;;;;;;5040972;28;20430;-88
2022/03/25 11:37:45;;;;;;;2.30;2.17;;;21.30;76.60;;;;;;5021514;28;20474;-89
2022/03/25 11:40:20;;;;;;;2.30;1.63;;;21.30;77.40;;;;;;5047804;28;20485;-86
2022/03/25 11:42:51;;;;;;;2.40;2.10;;;20.90;78.90;;;;;;5029466;28;20183;-88
2022/03/25 11:45:24;;;;;;;1.33;0.77;;;21.60;80.00;;;;;;5025077;28;20513;-88
2022/03/25 11:47:59;;;;;;;2.23;1.67;;;21.20;77.10;;;;;;5024390;28;20435;-88
2022/03/25 11:50:45;;;;;;;7.30;2.60;;;20.70;77.90;;;;;;5033355;28;20459;-87
2022/03/25 11:53:10;;;;;;;2.10;1.37;;;21.10;78.20;;;;;;5022525;28;20442;-87
2022/03/25 11:56:02;;;;;;;2.57;1.90;;;20.90;78.00;;;;;;5026486;28;20512;-87
2022/03/25 11:58:33;;;;;;;2.77;2.50;;;21.20;77.90;;;;;;5045313;28;20183;-87
2022/03/25 12:01:12;;;;;;;2.33;1.60;;;22.30;75.90;;;;;;5047672;28;20938;-88
2022/03/25 12:03:49;;;;;;;1.23;0.90;;;21.70;75.00;;;;;;5031268;28;20444;-88
2022/03/25 12:06:35;;;;;;;2.00;1.80;;;22.30;80.90;;;;;;5030960;28;20488;-87
2022/03/25 12:09:18;;;;;;;1.20;1.00;;;22.50;76.20;;;;;;5026121;28;20801;-87
2022/03/25 12:11:54;;;;;;;3.63;1.80;;;22.50;75.90;;;;;;5027955;28;20442;-88
2022/03/25 12:14:31;;;;;;;2.03;1.67;;;22.90;72.50;;;;;;5028915;28;20438;-87
2022/03/25 12:17:07;;;;;;;2.93;2.13;;;21.80;74.40;;;;;;5031149;28;20443;-88
2022/03/25 12:19:39;;;;;;;4.53;3.13;;;21.30;75.10;;;;;;5029933;28;20465;-87
2022/03/25 12:22:20;;;;;;;2.30;1.53;;;22.00;76.30;;;;;;5028610;28;20446;-89
2022/03/25 12:24:47;;;;;;;2.43;2.17;;;22.80;75.80;;;;;;5029653;28;20418;-90
2022/03/25 12:27:13;;;;;;;2.90;1.80;;;23.20;74.50;;;;;;5025256;28;20494;-89
2022/03/25 12:29:43;;;;;;;1.83;1.40;;;23.20;72.90;;;;;;5029973;28;22143;-89
2022/03/25 12:32:14;;;;;;;2.07;1.50;;;23.80;74.40;;;;;;5027741;28;20178;-89
2022/03/25 12:34:58;;;;;;;2.63;1.40;;;24.50;75.60;;;;;;5017358;28;20986;-88
2022/03/25 12:38:02;;;;;;;3.43;1.37;;;23.70;71.40;;;;;;5025520;28;20530;-88
2022/03/25 12:40:34;;;;;;;2.00;1.20;;;22.70;71.20;;;;;;5019904;28;20987;-90
2022/03/25 12:43:05;;;;;;;1.97;1.23;;;24.00;74.20;;;;;;5025291;28;22004;-91
2022/03/25 12:45:46;;;;;;;2.23;1.13;;;23.50;70.20;;;;;;5027246;28;20505;-91
2022/03/25 12:48:11;;;;;;;3.33;1.50;;;23.90;73.10;;;;;;5027521;28;20469;-91
2022/03/25 12:50:40;;;;;;;2.17;1.50;;;24.30;72.40;;;;;;5038475;28;20480;-90
2022/03/25 12:53:06;;;;;;;2.97;1.80;;;23.50;71.60;;;;;;5037971;28;20194;-91
2022/03/25 12:55:33;;;;;;;1.60;0.97;;;23.60;71.90;;;;;;5035235;28;20980;-90
2022/03/25 12:58:07;;;;;;;1.70;1.53;;;23.60;69.90;;;;;;5033935;28;20449;-91
2022/03/25 13:00:39;;;;;;;3.33;2.50;;;23.80;69.90;;;;;;5025439;28;20470;-92